sensor_id;sensor_type;location;lat;lon;timestamp;P1;durP1;ratioP1;P2;durP2;ratioP2
9117;SDS011;4594;50.994;7.126;2022-10-31T00:02:23;5.43;;;4.80;;
9117;SDS011;4594;50.994;7.126;2022-10-31T00:04:49;12.43;;;4.33;;
9117;SDS011;4594;50.994;7.126;2022-10-31T00:07:14;10.27;;;4.70;;
9117;SDS011;4594;50.994;7.126;2022-10-31T00:09:40;8.90;;;4.57;;
9117;SDS011;4594;50.994;7.126;2022-10-31T00:12:06;5.80;;;4.23;;
9117;SDS011;4594;50.994;7.126;2022-10-31T00:14:31;4.60;;;4.20;;
9117;SDS011;4594;50.994;7.126;2022-10-31T00:16:57;11.23;;;4.67;;
9117;SDS011;4594;50.994;7.126;2022-10-31T00:19:23;6.83;;;4.90;;
9117;SDS011;4594;50.994;7.126;2022-10-31T00:21:48;7.90;;;5.33;;
9117;SDS011;4594;50.994;7.126;2022-10-31T00:24:16;5.30;;;4.80;;
9117;SDS011;4594;50.994;7.126;2022-10-31T00:26:42;10.43;;;5.00;;
9117;SDS011;4594;50.994;7.126;2022-10-31T00:29:08;12.03;;;4.90;;
9117;SDS011;4594;50.994;7.126;2022-10-31T00:31:35;6.73;;;4.70;;
9117;SDS011;4594;50.994;7.126;2022-10-31T00:34:00;9.67;;;4.93;;
9117;SDS011;4594;50.994;7.126;2022-10-31T00:36:27;8.00;;;4.90;;
9117;SDS011;4594;50.994;7.126;2022-10-31T00:38:53;6.23;;;4.43;;
9117;SDS011;4594;50.994;7.126;2022-10-31T00:41:19;7.23;;;4.73;;
9117;SDS011;4594;50.994;7.126;2022-10-31T00:43:45;8.20;;;4.87;;
9117;SDS011;4594;50.994;7.126;2022-10-31T00:46:11;6.67;;;4.50;;
9117;SDS011;4594;50.994;7.126;2022-10-31T00:48:38;7.30;;;4.47;;
9117;SDS011;4594;50.994;7.126;2022-10-31T00:51:04;8.93;;;4.40;;
9117;SDS011;4594;50.994;7.126;2022-10-31T00:53:30;5.67;;;4.40;;
9117;SDS011;4594;50.994;7.126;2022-10-31T00:55:56;5.07;;;4.30;;
9117;SDS011;4594;50.994;7.126;2022-10-31T00:58:21;7.33;;;4.50;;
9117;SDS011;4594;50.994;7.126;2022-10-31T01:00:50;7.40;;;4.37;;
9117;SDS011;4594;50.994;7.126;2022-10-31T01:03:20;5.23;;;4.40;;
9117;SDS011;4594;50.994;7.126;2022-10-31T01:06:04;7.80;;;4.50;;
9117;SDS011;4594;50.994;7.126;2022-10-31T01:08:34;4.60;;;4.20;;
9117;SDS011;4594;50.994;7.126;2022-10-31T01:11:06;8.93;;;4.57;;
9117;SDS011;4594;50.994;7.126;2022-10-31T01:13:38;7.77;;;4.30;;
9117;SDS011;4594;50.994;7.126;2022-10-31T01:16:04;5.93;;;4.43;;
9117;SDS011;4594;50.994;7.126;2022-10-31T01:18:32;4.83;;;4.33;;
9117;SDS011;4594;50.994;7.126;2022-10-31T01:21:00;6.00;;;4.97;;
9117;SDS011;4594;50.994;7.126;2022-10-31T01:23:32;6.27;;;4.57;;
9117;SDS011;4594;50.994;7.126;2022-10-31T01:26:03;7.47;;;4.27;;
9117;SDS011;4594;50.994;7.126;2022-10-31T01:28:32;4.87;;;4.03;;
9117;SDS011;4594;50.994;7.126;2022-10-31T01:31:01;5.53;;;3.83;;
9117;SDS011;4594;50.994;7.126;2022-10-31T01:33:30;6.57;;;4.43;;
9117;SDS011;4594;50.994;7.126;2022-10-31T01:35:56;7.60;;;4.83;;
9117;SDS011;4594;50.994;7.126;2022-10-31T01:38:22;5.03;;;4.00;;
9117;SDS011;4594;50.994;7.126;2022-10-31T01:40:48;6.23;;;4.27;;
9117;SDS011;4594;50.994;7.126;2022-10-31T01:43:15;10.87;;;4.57;;
9117;SDS011;4594;50.994;7.126;2022-10-31T01:45:41;7.27;;;4.43;;
9117;SDS011;4594;50.994;7.126;2022-10-31T01:48:15;4.83;;;4.17;;
9117;SDS011;4594;50.994;7.126;2022-10-31T01:50:45;6.80;;;4.17;;
9117;SDS011;4594;50.994;7.126;2022-10-31T01:53:17;5.40;;;4.73;;
9117;SDS011;4594;50.994;7.126;2022-10-31T01:55:44;7.67;;;5.27;;
9117;SDS011;4594;50.994;7.126;2022-10-31T01:58:13;7.27;;;4.77;;
9117;SDS011;4594;50.994;7.126;2022-10-31T02:00:45;4.97;;;4.10;;
9117;SDS011;4594;50.994;7.126;2022-10-31T02:03:17;7.30;;;4.63;;
9117;SDS011;4594;50.994;7.126;2022-10-31T02:05:45;6.07;;;4.10;;
9117;SDS011;4594;50.994;7.126;2022-10-31T02:08:13;7.07;;;4.40;;
9117;SDS011;4594;50.994;7.126;2022-10-31T02:10:49;5.80;;;4.53;;
9117;SDS011;4594;50.994;7.126;2022-10-31T02:13:15;8.30;;;4.77;;
9117;SDS011;4594;50.994;7.126;2022-10-31T02:15:42;8.40;;;4.87;;
9117;SDS011;4594;50.994;7.126;2022-10-31T02:18:14;6.33;;;3.93;;
9117;SDS011;4594;50.994;7.126;2022-10-31T02:21:04;4.70;;;4.23;;
9117;SDS011;4594;50.994;7.126;2022-10-31T02:24:00;6.07;;;4.17;;
9117;SDS011;4594;50.994;7.126;2022-10-31T02:27:03;4.30;;;3.70;;
9117;SDS011;4594;50.994;7.126;2022-10-31T02:38:50;4.30;;;3.90;;
9117;SDS011;4594;50.994;7.126;2022-10-31T02:41:37;5.03;;;4.17;;
9117;SDS011;4594;50.994;7.126;2022-10-31T02:47:22;10.20;;;4.67;;
9117;SDS011;4594;50.994;7.126;2022-10-31T02:50:01;5.87;;;3.97;;
9117;SDS011;4594;50.994;7.126;2022-10-31T02:52:34;4.83;;;4.33;;
9117;SDS011;4594;50.994;7.126;2022-10-31T02:55:10;7.83;;;4.40;;
9117;SDS011;4594;50.994;7.126;2022-10-31T02:58:09;5.07;;;4.20;;
9117;SDS011;4594;50.994;7.126;2022-10-31T03:03:59;5.83;;;4.60;;
9117;SDS011;4594;50.994;7.126;2022-10-31T03:09:26;5.83;;;4.57;;
9117;SDS011;4594;50.994;7.126;2022-10-31T03:17:50;6.47;;;4.63;;
9117;SDS011;4594;50.994;7.126;2022-10-31T03:23:33;5.70;;;4.20;;
9117;SDS011;4594;50.994;7.126;2022-10-31T03:26:04;5.53;;;4.50;;
9117;SDS011;4594;50.994;7.126;2022-10-31T03:28:35;8.67;;;4.37;;
9117;SDS011;4594;50.994;7.126;2022-10-31T03:31:15;15.30;;;4.60;;
9117;SDS011;4594;50.994;7.126;2022-10-31T03:33:44;6.20;;;4.93;;
9117;SDS011;4594;50.994;7.126;2022-10-31T03:36:13;6.37;;;4.30;;
9117;SDS011;4594;50.994;7.126;2022-10-31T03:38:42;5.60;;;4.10;;
9117;SDS011;4594;50.994;7.126;2022-10-31T03:41:12;9.50;;;4.83;;
9117;SDS011;4594;50.994;7.126;2022-10-31T03:43:48;5.30;;;4.43;;
9117;SDS011;4594;50.994;7.126;2022-10-31T03:46:29;4.20;;;3.80;;
9117;SDS011;4594;50.994;7.126;2022-10-31T03:48:56;7.87;;;4.90;;
9117;SDS011;4594;50.994;7.126;2022-10-31T03:54:13;6.47;;;4.40;;
9117;SDS011;4594;50.994;7.126;2022-10-31T04:00:04;6.73;;;4.73;;
9117;SDS011;4594;50.994;7.126;2022-10-31T04:02:38;9.90;;;4.97;;
9117;SDS011;4594;50.994;7.126;2022-10-31T04:05:12;7.43;;;4.70;;
9117;SDS011;4594;50.994;7.126;2022-10-31T04:07:42;5.73;;;4.13;;
9117;SDS011;4594;50.994;7.126;2022-10-31T04:10:13;9.00;;;4.60;;
9117;SDS011;4594;50.994;7.126;2022-10-31T04:12:42;6.30;;;4.53;;
9117;SDS011;4594;50.994;7.126;2022-10-31T04:15:14;4.80;;;4.40;;
9117;SDS011;4594;50.994;7.126;2022-10-31T04:17:40;6.20;;;4.00;;
9117;SDS011;4594;50.994;7.126;2022-10-31T04:20:10;7.60;;;5.07;;
9117;SDS011;4594;50.994;7.126;2022-10-31T04:22:36;7.57;;;4.90;;
9117;SDS011;4594;50.994;7.126;2022-10-31T04:25:01;5.30;;;4.43;;
9117;SDS011;4594;50.994;7.126;2022-10-31T04:27:27;11.40;;;5.33;;
9117;SDS011;4594;50.994;7.126;2022-10-31T04:29:53;5.93;;;4.53;;
9117;SDS011;4594;50.994;7.126;2022-10-31T04:32:18;6.07;;;4.60;;
9117;SDS011;4594;50.994;7.126;2022-10-31T04:34:44;6.50;;;4.30;;
9117;SDS011;4594;50.994;7.126;2022-10-31T04:37:10;4.90;;;4.40;;
9117;SDS011;4594;50.994;7.126;2022-10-31T04:39:35;4.87;;;4.40;;
9117;SDS011;4594;50.994;7.126;2022-10-31T04:42:01;7.00;;;4.50;;
9117;SDS011;4594;50.994;7.126;2022-10-31T04:44:27;9.47;;;5.00;;
9117;SDS011;4594;50.994;7.126;2022-10-31T04:46:52;6.90;;;4.77;;
9117;SDS011;4594;50.994;7.126;2022-10-31T04:49:18;11.03;;;4.70;;
9117;SDS011;4594;50.994;7.126;2022-10-31T04:51:43;7.37;;;5.23;;
9117;SDS011;4594;50.994;7.126;2022-10-31T04:54:09;7.53;;;5.23;;
9117;SDS011;4594;50.994;7.126;2022-10-31T04:56:35;5.83;;;5.10;;
9117;SDS011;4594;50.994;7.126;2022-10-31T04:59:00;7.53;;;4.93;;
9117;SDS011;4594;50.994;7.126;2022-10-31T05:01:26;9.40;;;4.83;;
9117;SDS011;4594;50.994;7.126;2022-10-31T05:03:52;14.90;;;5.07;;
9117;SDS011;4594;50.994;7.126;2022-10-31T05:06:18;7.77;;;5.30;;
9117;SDS011;4594;50.994;7.126;2022-10-31T05:08:44;9.20;;;4.43;;
9117;SDS011;4594;50.994;7.126;2022-10-31T05:11:09;8.17;;;5.13;;
9117;SDS011;4594;50.994;7.126;2022-10-31T05:13:35;5.13;;;4.63;;
9117;SDS011;4594;50.994;7.126;2022-10-31T05:16:01;6.23;;;4.90;;
9117;SDS011;4594;50.994;7.126;2022-10-31T05:18:28;14.20;;;5.30;;
9117;SDS011;4594;50.994;7.126;2022-10-31T05:20:53;6.90;;;5.60;;
9117;SDS011;4594;50.994;7.126;2022-10-31T05:23:19;8.00;;;5.00;;
9117;SDS011;4594;50.994;7.126;2022-10-31T05:25:45;8.67;;;5.30;;
9117;SDS011;4594;50.994;7.126;2022-10-31T05:28:10;9.13;;;4.50;;
9117;SDS011;4594;50.994;7.126;2022-10-31T05:30:36;10.57;;;5.57;;
9117;SDS011;4594;50.994;7.126;2022-10-31T05:33:02;10.23;;;5.60;;
9117;SDS011;4594;50.994;7.126;2022-10-31T05:35:29;8.60;;;5.10;;
9117;SDS011;4594;50.994;7.126;2022-10-31T05:37:57;14.07;;;5.53;;
9117;SDS011;4594;50.994;7.126;2022-10-31T05:40:24;5.47;;;4.87;;
9117;SDS011;4594;50.994;7.126;2022-10-31T05:42:52;6.63;;;5.00;;
9117;SDS011;4594;50.994;7.126;2022-10-31T05:45:19;7.93;;;5.50;;
9117;SDS011;4594;50.994;7.126;2022-10-31T05:47:52;7.87;;;5.80;;
9117;SDS011;4594;50.994;7.126;2022-10-31T05:50:21;8.37;;;5.50;;
9117;SDS011;4594;50.994;7.126;2022-10-31T05:52:55;10.77;;;6.10;;
9117;SDS011;4594;50.994;7.126;2022-10-31T05:55:22;12.27;;;6.10;;
9117;SDS011;4594;50.994;7.126;2022-10-31T05:57:50;7.00;;;5.57;;
9117;SDS011;4594;50.994;7.126;2022-10-31T06:00:17;8.80;;;6.37;;
9117;SDS011;4594;50.994;7.126;2022-10-31T06:02:43;9.20;;;5.47;;
9117;SDS011;4594;50.994;7.126;2022-10-31T06:05:09;10.60;;;5.57;;
9117;SDS011;4594;50.994;7.126;2022-10-31T06:07:35;12.23;;;5.37;;
9117;SDS011;4594;50.994;7.126;2022-10-31T06:10:01;7.07;;;5.23;;
9117;SDS011;4594;50.994;7.126;2022-10-31T06:12:30;10.27;;;5.10;;
9117;SDS011;4594;50.994;7.126;2022-10-31T06:14:56;7.67;;;5.10;;
9117;SDS011;4594;50.994;7.126;2022-10-31T06:17:22;8.70;;;5.03;;
9117;SDS011;4594;50.994;7.126;2022-10-31T06:19:48;13.07;;;5.77;;
9117;SDS011;4594;50.994;7.126;2022-10-31T06:22:13;6.73;;;5.40;;
9117;SDS011;4594;50.994;7.126;2022-10-31T06:24:39;7.33;;;5.77;;
9117;SDS011;4594;50.994;7.126;2022-10-31T06:27:05;8.80;;;5.50;;
9117;SDS011;4594;50.994;7.126;2022-10-31T06:29:31;6.87;;;5.43;;
9117;SDS011;4594;50.994;7.126;2022-10-31T06:31:57;7.43;;;5.17;;
9117;SDS011;4594;50.994;7.126;2022-10-31T06:34:22;5.93;;;5.07;;
9117;SDS011;4594;50.994;7.126;2022-10-31T06:36:48;6.13;;;4.97;;
9117;SDS011;4594;50.994;7.126;2022-10-31T06:39:14;8.30;;;5.30;;
9117;SDS011;4594;50.994;7.126;2022-10-31T06:41:40;8.83;;;5.27;;
9117;SDS011;4594;50.994;7.126;2022-10-31T06:44:06;5.87;;;5.07;;
9117;SDS011;4594;50.994;7.126;2022-10-31T06:46:33;9.60;;;5.17;;
9117;SDS011;4594;50.994;7.126;2022-10-31T06:48:59;9.20;;;5.80;;
9117;SDS011;4594;50.994;7.126;2022-10-31T06:51:25;7.53;;;4.87;;
9117;SDS011;4594;50.994;7.126;2022-10-31T06:53:50;6.80;;;5.07;;
9117;SDS011;4594;50.994;7.126;2022-10-31T06:56:16;6.20;;;5.00;;
9117;SDS011;4594;50.994;7.126;2022-10-31T06:58:42;10.93;;;5.40;;
9117;SDS011;4594;50.994;7.126;2022-10-31T07:01:07;8.00;;;5.20;;
9117;SDS011;4594;50.994;7.126;2022-10-31T07:03:33;12.03;;;5.57;;
9117;SDS011;4594;50.994;7.126;2022-10-31T07:05:59;6.63;;;4.80;;
9117;SDS011;4594;50.994;7.126;2022-10-31T07:08:25;6.17;;;5.20;;
9117;SDS011;4594;50.994;7.126;2022-10-31T07:10:52;5.07;;;4.57;;
9117;SDS011;4594;50.994;7.126;2022-10-31T07:13:20;5.63;;;4.67;;
9117;SDS011;4594;50.994;7.126;2022-10-31T07:15:50;5.80;;;5.20;;
9117;SDS011;4594;50.994;7.126;2022-10-31T07:18:18;8.20;;;5.70;;
9117;SDS011;4594;50.994;7.126;2022-10-31T07:20:45;7.20;;;5.33;;
9117;SDS011;4594;50.994;7.126;2022-10-31T07:23:11;8.53;;;5.20;;
9117;SDS011;4594;50.994;7.126;2022-10-31T07:25:38;11.10;;;5.27;;
9117;SDS011;4594;50.994;7.126;2022-10-31T07:28:05;8.57;;;4.97;;
9117;SDS011;4594;50.994;7.126;2022-10-31T07:30:31;8.07;;;5.23;;
9117;SDS011;4594;50.994;7.126;2022-10-31T07:32:57;7.53;;;5.57;;
9117;SDS011;4594;50.994;7.126;2022-10-31T07:35:24;10.20;;;5.77;;
9117;SDS011;4594;50.994;7.126;2022-10-31T07:37:53;8.77;;;5.30;;
9117;SDS011;4594;50.994;7.126;2022-10-31T07:40:20;10.37;;;5.53;;
9117;SDS011;4594;50.994;7.126;2022-10-31T07:42:48;9.27;;;5.40;;
9117;SDS011;4594;50.994;7.126;2022-10-31T07:45:17;7.00;;;5.17;;
9117;SDS011;4594;50.994;7.126;2022-10-31T07:47:46;13.23;;;6.20;;
9117;SDS011;4594;50.994;7.126;2022-10-31T07:50:21;8.07;;;5.53;;
9117;SDS011;4594;50.994;7.126;2022-10-31T07:53:07;12.47;;;5.30;;
9117;SDS011;4594;50.994;7.126;2022-10-31T07:55:36;8.43;;;5.07;;
9117;SDS011;4594;50.994;7.126;2022-10-31T07:58:03;10.20;;;5.83;;
9117;SDS011;4594;50.994;7.126;2022-10-31T08:00:36;7.20;;;4.67;;
9117;SDS011;4594;50.994;7.126;2022-10-31T08:03:04;7.57;;;5.57;;
9117;SDS011;4594;50.994;7.126;2022-10-31T08:05:33;8.90;;;5.43;;
9117;SDS011;4594;50.994;7.126;2022-10-31T08:08:00;8.07;;;5.03;;
9117;SDS011;4594;50.994;7.126;2022-10-31T08:10:26;8.90;;;5.60;;
9117;SDS011;4594;50.994;7.126;2022-10-31T08:12:59;6.67;;;5.10;;
9117;SDS011;4594;50.994;7.126;2022-10-31T08:15:31;12.93;;;5.60;;
9117;SDS011;4594;50.994;7.126;2022-10-31T08:17:59;10.83;;;5.53;;
9117;SDS011;4594;50.994;7.126;2022-10-31T08:20:25;11.60;;;5.83;;
9117;SDS011;4594;50.994;7.126;2022-10-31T08:22:57;14.40;;;5.80;;
9117;SDS011;4594;50.994;7.126;2022-10-31T08:25:29;7.57;;;5.17;;
9117;SDS011;4594;50.994;7.126;2022-10-31T08:27:57;11.57;;;5.60;;
9117;SDS011;4594;50.994;7.126;2022-10-31T08:30:25;10.33;;;5.77;;
9117;SDS011;4594;50.994;7.126;2022-10-31T08:33:01;10.57;;;5.63;;
9117;SDS011;4594;50.994;7.126;2022-10-31T08:35:31;8.23;;;5.43;;
9117;SDS011;4594;50.994;7.126;2022-10-31T08:37:58;8.90;;;5.60;;
9117;SDS011;4594;50.994;7.126;2022-10-31T08:40:27;13.73;;;5.57;;
9117;SDS011;4594;50.994;7.126;2022-10-31T08:42:58;15.77;;;5.53;;
9117;SDS011;4594;50.994;7.126;2022-10-31T08:45:35;8.77;;;5.63;;
9117;SDS011;4594;50.994;7.126;2022-10-31T08:48:02;7.33;;;5.13;;
9117;SDS011;4594;50.994;7.126;2022-10-31T08:50:32;16.10;;;6.17;;
9117;SDS011;4594;50.994;7.126;2022-10-31T08:53:00;12.13;;;6.03;;
9117;SDS011;4594;50.994;7.126;2022-10-31T08:55:36;10.07;;;5.23;;
9117;SDS011;4594;50.994;7.126;2022-10-31T08:58:03;10.47;;;5.97;;
9117;SDS011;4594;50.994;7.126;2022-10-31T09:00:32;11.70;;;5.03;;
9117;SDS011;4594;50.994;7.126;2022-10-31T09:03:03;8.47;;;5.43;;
9117;SDS011;4594;50.994;7.126;2022-10-31T09:05:33;10.23;;;5.67;;
9117;SDS011;4594;50.994;7.126;2022-10-31T09:08:00;8.67;;;5.27;;
9117;SDS011;4594;50.994;7.126;2022-10-31T09:10:28;10.50;;;5.03;;
9117;SDS011;4594;50.994;7.126;2022-10-31T09:12:59;9.27;;;4.90;;
9117;SDS011;4594;50.994;7.126;2022-10-31T09:15:32;10.00;;;4.97;;
9117;SDS011;4594;50.994;7.126;2022-10-31T09:18:00;11.10;;;5.57;;
9117;SDS011;4594;50.994;7.126;2022-10-31T09:20:27;16.33;;;6.07;;
9117;SDS011;4594;50.994;7.126;2022-10-31T09:22:57;9.10;;;5.60;;
9117;SDS011;4594;50.994;7.126;2022-10-31T09:25:28;10.40;;;5.93;;
9117;SDS011;4594;50.994;7.126;2022-10-31T09:27:58;18.97;;;5.77;;
9117;SDS011;4594;50.994;7.126;2022-10-31T09:30:26;7.63;;;5.63;;
9117;SDS011;4594;50.994;7.126;2022-10-31T09:32:55;10.07;;;4.90;;
9117;SDS011;4594;50.994;7.126;2022-10-31T09:35:26;12.43;;;5.40;;
9117;SDS011;4594;50.994;7.126;2022-10-31T09:37:56;10.93;;;5.70;;
9117;SDS011;4594;50.994;7.126;2022-10-31T09:40:52;16.33;;;6.13;;
9117;SDS011;4594;50.994;7.126;2022-10-31T09:43:38;7.73;;;5.43;;
9117;SDS011;4594;50.994;7.126;2022-10-31T09:46:32;10.53;;;5.63;;
9117;SDS011;4594;50.994;7.126;2022-10-31T09:58:14;7.37;;;5.07;;
9117;SDS011;4594;50.994;7.126;2022-10-31T10:00:46;8.57;;;5.33;;
9117;SDS011;4594;50.994;7.126;2022-10-31T10:03:28;8.43;;;4.23;;
9117;SDS011;4594;50.994;7.126;2022-10-31T10:08:40;18.17;;;5.27;;
9117;SDS011;4594;50.994;7.126;2022-10-31T10:17:07;7.40;;;4.10;;
9117;SDS011;4594;50.994;7.126;2022-10-31T10:28:38;13.67;;;4.00;;
9117;SDS011;4594;50.994;7.126;2022-10-31T10:36:43;5.60;;;4.30;;
9117;SDS011;4594;50.994;7.126;2022-10-31T10:39:28;9.27;;;4.40;;
9117;SDS011;4594;50.994;7.126;2022-10-31T10:42:11;7.47;;;4.80;;
9117;SDS011;4594;50.994;7.126;2022-10-31T10:44:59;10.10;;;4.40;;
9117;SDS011;4594;50.994;7.126;2022-10-31T10:47:59;5.13;;;3.83;;
9117;SDS011;4594;50.994;7.126;2022-10-31T10:50:50;7.77;;;4.00;;
9117;SDS011;4594;50.994;7.126;2022-10-31T10:56:11;9.47;;;4.33;;
9117;SDS011;4594;50.994;7.126;2022-10-31T10:58:54;8.00;;;3.93;;
9117;SDS011;4594;50.994;7.126;2022-10-31T11:01:22;8.73;;;4.00;;
9117;SDS011;4594;50.994;7.126;2022-10-31T11:03:48;9.70;;;4.27;;
9117;SDS011;4594;50.994;7.126;2022-10-31T11:06:17;6.57;;;4.40;;
9117;SDS011;4594;50.994;7.126;2022-10-31T11:08:49;8.33;;;4.10;;
9117;SDS011;4594;50.994;7.126;2022-10-31T11:11:31;6.23;;;3.67;;
9117;SDS011;4594;50.994;7.126;2022-10-31T11:13:59;11.97;;;4.30;;
9117;SDS011;4594;50.994;7.126;2022-10-31T11:16:37;14.20;;;4.20;;
9117;SDS011;4594;50.994;7.126;2022-10-31T11:21:44;8.40;;;4.13;;
9117;SDS011;4594;50.994;7.126;2022-10-31T11:24:21;7.43;;;3.93;;
9117;SDS011;4594;50.994;7.126;2022-10-31T11:27:02;6.03;;;3.87;;
9117;SDS011;4594;50.994;7.126;2022-10-31T11:29:38;8.60;;;4.13;;
9117;SDS011;4594;50.994;7.126;2022-10-31T11:32:04;7.60;;;3.97;;
9117;SDS011;4594;50.994;7.126;2022-10-31T11:34:34;9.70;;;4.17;;
9117;SDS011;4594;50.994;7.126;2022-10-31T11:37:27;6.60;;;3.93;;
9117;SDS011;4594;50.994;7.126;2022-10-31T11:39:58;8.43;;;4.20;;
9117;SDS011;4594;50.994;7.126;2022-10-31T11:42:29;4.37;;;3.23;;
9117;SDS011;4594;50.994;7.126;2022-10-31T11:45:14;5.47;;;3.47;;
9117;SDS011;4594;50.994;7.126;2022-10-31T11:47:46;5.20;;;3.10;;
9117;SDS011;4594;50.994;7.126;2022-10-31T11:50:18;5.63;;;3.50;;
9117;SDS011;4594;50.994;7.126;2022-10-31T11:52:52;5.20;;;3.23;;
9117;SDS011;4594;50.994;7.126;2022-10-31T11:55:30;7.07;;;3.70;;
9117;SDS011;4594;50.994;7.126;2022-10-31T11:57:58;7.33;;;3.07;;
9117;SDS011;4594;50.994;7.126;2022-10-31T12:00:32;6.00;;;3.20;;
9117;SDS011;4594;50.994;7.126;2022-10-31T12:05:47;8.00;;;3.70;;
9117;SDS011;4594;50.994;7.126;2022-10-31T12:08:23;12.70;;;4.17;;
9117;SDS011;4594;50.994;7.126;2022-10-31T12:34:20;6.40;;;3.20;;
9117;SDS011;4594;50.994;7.126;2022-10-31T12:42:48;4.50;;;3.17;;
9117;SDS011;4594;50.994;7.126;2022-10-31T12:54:02;7.00;;;3.23;;
9117;SDS011;4594;50.994;7.126;2022-10-31T12:59:28;8.60;;;3.37;;
9117;SDS011;4594;50.994;7.126;2022-10-31T13:05:39;3.50;;;2.83;;
9117;SDS011;4594;50.994;7.126;2022-10-31T13:08:11;6.30;;;3.30;;
9117;SDS011;4594;50.994;7.126;2022-10-31T13:11:00;9.53;;;3.60;;
9117;SDS011;4594;50.994;7.126;2022-10-31T13:14:15;5.03;;;3.20;;
9117;SDS011;4594;50.994;7.126;2022-10-31T13:16:55;5.57;;;3.30;;
9117;SDS011;4594;50.994;7.126;2022-10-31T13:19:30;8.20;;;3.30;;
9117;SDS011;4594;50.994;7.126;2022-10-31T13:22:18;5.97;;;3.20;;
9117;SDS011;4594;50.994;7.126;2022-10-31T13:27:23;6.53;;;3.23;;
9117;SDS011;4594;50.994;7.126;2022-10-31T13:32:50;7.63;;;3.00;;
9117;SDS011;4594;50.994;7.126;2022-10-31T13:38:22;6.93;;;3.00;;
9117;SDS011;4594;50.994;7.126;2022-10-31T13:44:22;4.83;;;2.70;;
9117;SDS011;4594;50.994;7.126;2022-10-31T13:47:00;6.17;;;2.73;;
9117;SDS011;4594;50.994;7.126;2022-10-31T13:54:35;5.43;;;2.73;;
9117;SDS011;4594;50.994;7.126;2022-10-31T13:57:22;3.10;;;2.80;;
9117;SDS011;4594;50.994;7.126;2022-10-31T14:02:49;3.57;;;2.80;;
9117;SDS011;4594;50.994;7.126;2022-10-31T14:07:59;3.77;;;3.07;;
9117;SDS011;4594;50.994;7.126;2022-10-31T14:10:32;5.80;;;2.83;;
9117;SDS011;4594;50.994;7.126;2022-10-31T14:13:04;7.57;;;3.60;;
9117;SDS011;4594;50.994;7.126;2022-10-31T14:15:33;4.63;;;2.90;;
9117;SDS011;4594;50.994;7.126;2022-10-31T14:18:18;7.10;;;2.73;;
9117;SDS011;4594;50.994;7.126;2022-10-31T14:23:50;5.23;;;2.70;;
9117;SDS011;4594;50.994;7.126;2022-10-31T14:26:29;7.63;;;2.90;;
9117;SDS011;4594;50.994;7.126;2022-10-31T14:28:59;6.83;;;3.37;;
9117;SDS011;4594;50.994;7.126;2022-10-31T14:34:37;12.50;;;3.47;;
9117;SDS011;4594;50.994;7.126;2022-10-31T14:42:41;7.83;;;3.03;;
9117;SDS011;4594;50.994;7.126;2022-10-31T14:48:05;5.57;;;3.33;;
9117;SDS011;4594;50.994;7.126;2022-10-31T14:51:12;6.30;;;3.40;;
9117;SDS011;4594;50.994;7.126;2022-10-31T14:53:50;5.43;;;2.80;;
9117;SDS011;4594;50.994;7.126;2022-10-31T14:56:29;12.40;;;3.30;;
9117;SDS011;4594;50.994;7.126;2022-10-31T14:59:02;4.57;;;2.80;;
9117;SDS011;4594;50.994;7.126;2022-10-31T15:01:34;10.70;;;3.37;;
9117;SDS011;4594;50.994;7.126;2022-10-31T15:04:05;7.97;;;3.57;;
9117;SDS011;4594;50.994;7.126;2022-10-31T15:06:44;6.93;;;2.97;;
9117;SDS011;4594;50.994;7.126;2022-10-31T15:09:26;7.37;;;3.10;;
9117;SDS011;4594;50.994;7.126;2022-10-31T15:11:55;4.87;;;2.93;;
9117;SDS011;4594;50.994;7.126;2022-10-31T15:14:26;5.57;;;3.30;;
9117;SDS011;4594;50.994;7.126;2022-10-31T15:16:55;15.73;;;3.23;;
9117;SDS011;4594;50.994;7.126;2022-10-31T15:19:25;6.00;;;3.10;;
9117;SDS011;4594;50.994;7.126;2022-10-31T15:21:54;3.40;;;2.80;;
9117;SDS011;4594;50.994;7.126;2022-10-31T15:24:23;9.20;;;3.30;;
9117;SDS011;4594;50.994;7.126;2022-10-31T15:26:57;8.50;;;3.10;;
9117;SDS011;4594;50.994;7.126;2022-10-31T15:29:24;5.00;;;2.83;;
9117;SDS011;4594;50.994;7.126;2022-10-31T15:31:52;5.40;;;2.67;;
9117;SDS011;4594;50.994;7.126;2022-10-31T15:34:26;7.80;;;2.80;;
9117;SDS011;4594;50.994;7.126;2022-10-31T15:37:02;7.13;;;2.70;;
9117;SDS011;4594;50.994;7.126;2022-10-31T15:39:29;6.27;;;2.70;;
9117;SDS011;4594;50.994;7.126;2022-10-31T15:41:56;4.77;;;2.80;;
9117;SDS011;4594;50.994;7.126;2022-10-31T15:44:30;5.60;;;2.80;;
9117;SDS011;4594;50.994;7.126;2022-10-31T15:47:01;4.57;;;2.77;;
9117;SDS011;4594;50.994;7.126;2022-10-31T15:49:41;7.00;;;3.07;;
9117;SDS011;4594;50.994;7.126;2022-10-31T15:54:51;3.60;;;2.77;;
9117;SDS011;4594;50.994;7.126;2022-10-31T15:57:23;8.17;;;3.10;;
9117;SDS011;4594;50.994;7.126;2022-10-31T15:59:51;7.97;;;2.87;;
9117;SDS011;4594;50.994;7.126;2022-10-31T16:02:19;9.27;;;3.27;;
9117;SDS011;4594;50.994;7.126;2022-10-31T16:04:58;13.03;;;3.50;;
9117;SDS011;4594;50.994;7.126;2022-10-31T16:07:26;8.13;;;3.70;;
9117;SDS011;4594;50.994;7.126;2022-10-31T16:09:58;9.37;;;3.33;;
9117;SDS011;4594;50.994;7.126;2022-10-31T16:12:34;7.10;;;3.43;;
9117;SDS011;4594;50.994;7.126;2022-10-31T16:15:03;6.10;;;2.77;;
9117;SDS011;4594;50.994;7.126;2022-10-31T16:17:31;4.70;;;2.93;;
9117;SDS011;4594;50.994;7.126;2022-10-31T16:20:01;4.13;;;2.93;;
9117;SDS011;4594;50.994;7.126;2022-10-31T16:22:33;5.13;;;2.87;;
9117;SDS011;4594;50.994;7.126;2022-10-31T16:25:12;7.53;;;3.13;;
9117;SDS011;4594;50.994;7.126;2022-10-31T16:27:47;5.40;;;3.13;;
9117;SDS011;4594;50.994;7.126;2022-10-31T16:30:50;6.10;;;3.23;;
9117;SDS011;4594;50.994;7.126;2022-10-31T16:33:27;11.17;;;3.50;;
9117;SDS011;4594;50.994;7.126;2022-10-31T16:35:59;12.67;;;3.57;;
9117;SDS011;4594;50.994;7.126;2022-10-31T16:38:28;8.83;;;3.70;;
9117;SDS011;4594;50.994;7.126;2022-10-31T16:40:53;7.80;;;3.40;;
9117;SDS011;4594;50.994;7.126;2022-10-31T16:43:20;7.17;;;3.03;;
9117;SDS011;4594;50.994;7.126;2022-10-31T16:45:48;7.57;;;3.80;;
9117;SDS011;4594;50.994;7.126;2022-10-31T16:48:18;7.93;;;3.17;;
9117;SDS011;4594;50.994;7.126;2022-10-31T16:50:47;4.47;;;3.33;;
9117;SDS011;4594;50.994;7.126;2022-10-31T16:53:15;7.23;;;3.63;;
9117;SDS011;4594;50.994;7.126;2022-10-31T16:55:54;6.63;;;3.37;;
9117;SDS011;4594;50.994;7.126;2022-10-31T16:58:24;7.13;;;3.07;;
9117;SDS011;4594;50.994;7.126;2022-10-31T17:01:04;6.87;;;3.30;;
9117;SDS011;4594;50.994;7.126;2022-10-31T17:03:31;5.63;;;3.23;;
9117;SDS011;4594;50.994;7.126;2022-10-31T17:05:57;9.70;;;4.27;;
9117;SDS011;4594;50.994;7.126;2022-10-31T17:08:23;5.47;;;3.33;;
9117;SDS011;4594;50.994;7.126;2022-10-31T17:10:50;5.70;;;3.40;;
9117;SDS011;4594;50.994;7.126;2022-10-31T17:13:20;10.83;;;3.27;;
9117;SDS011;4594;50.994;7.126;2022-10-31T17:15:55;7.10;;;3.20;;
9117;SDS011;4594;50.994;7.126;2022-10-31T17:18:24;4.60;;;3.43;;
9117;SDS011;4594;50.994;7.126;2022-10-31T17:20:54;6.30;;;3.43;;
9117;SDS011;4594;50.994;7.126;2022-10-31T17:23:25;7.50;;;3.50;;
9117;SDS011;4594;50.994;7.126;2022-10-31T17:25:52;6.23;;;3.30;;
9117;SDS011;4594;50.994;7.126;2022-10-31T17:28:18;5.37;;;3.40;;
9117;SDS011;4594;50.994;7.126;2022-10-31T17:30:44;8.33;;;3.80;;
9117;SDS011;4594;50.994;7.126;2022-10-31T17:33:13;5.03;;;3.33;;
9117;SDS011;4594;50.994;7.126;2022-10-31T17:35:44;4.17;;;3.30;;
9117;SDS011;4594;50.994;7.126;2022-10-31T17:38:09;16.77;;;3.77;;
9117;SDS011;4594;50.994;7.126;2022-10-31T17:40:36;6.07;;;3.30;;
9117;SDS011;4594;50.994;7.126;2022-10-31T17:43:03;4.23;;;3.67;;
9117;SDS011;4594;50.994;7.126;2022-10-31T17:45:29;7.03;;;3.57;;
9117;SDS011;4594;50.994;7.126;2022-10-31T17:47:55;4.90;;;3.40;;
9117;SDS011;4594;50.994;7.126;2022-10-31T17:50:22;8.27;;;3.30;;
9117;SDS011;4594;50.994;7.126;2022-10-31T17:52:50;6.73;;;3.47;;
9117;SDS011;4594;50.994;7.126;2022-10-31T17:55:17;8.60;;;3.07;;
9117;SDS011;4594;50.994;7.126;2022-10-31T17:57:43;5.60;;;3.23;;
9117;SDS011;4594;50.994;7.126;2022-10-31T18:00:14;6.70;;;3.47;;
9117;SDS011;4594;50.994;7.126;2022-10-31T18:02:43;10.03;;;3.97;;
9117;SDS011;4594;50.994;7.126;2022-10-31T18:05:09;8.27;;;3.50;;
9117;SDS011;4594;50.994;7.126;2022-10-31T18:07:35;8.33;;;3.50;;
9117;SDS011;4594;50.994;7.126;2022-10-31T18:10:00;4.73;;;3.00;;
9117;SDS011;4594;50.994;7.126;2022-10-31T18:12:27;6.77;;;3.20;;
9117;SDS011;4594;50.994;7.126;2022-10-31T18:14:52;7.87;;;3.60;;